Rieti Airfield

LIQN · Latium, Italie

METAR anciennes LIQN · Rieti Airfield

Tu vois ci-dessous les METAR des derniers jours. Sélectionne une année pour parcourir les METAR plus anciens, à partir de l'année 2007.

20 juin 2024

Temps Code Temps Temp. Vue Base cloud Vent METAR/SPECI
10:00
V
25 °C 9 km - Var Var 2 kt METAR LIQN 200800Z VRB02KT 9000 NSC 25/16 Q1021

19 juin 2024

Temps Code Temps Temp. Vue Base cloud Vent METAR/SPECI
19:50
V
27 °C 10 km+ - 100° 100° 3 kt METAR LIQN 191750Z 10003KT 090V150 CAVOK 27/17 Q1021
18:50
V
29 °C 10 km+ - 290° 290° 5 kt METAR LIQN 191650Z 29005KT CAVOK 29/11 Q1021
17:50
V
30 °C 10 km+ - 190° 190° 4 kt METAR LIQN 191550Z 19004KT 150V230 CAVOK 30/15 Q1020
16:50
V
29 °C 10 km+ - 170° 170° 5 kt METAR LIQN 191450Z 17005KT 140V200 CAVOK 29/14 Q1020
15:50
V
30 °C 10 km+ - 150° 150° 7 kt METAR LIQN 191350Z 15007KT 120V210 CAVOK 30/12 Q1020
14:50
V
30 °C 10 km+ - 160° 160° 6 kt METAR LIQN 191250Z 16006KT 120V200 CAVOK 30/17 Q1020
13:50
V
29 °C 10 km+ - 180° 180° 5 kt METAR LIQN 191150Z 18005KT 150V210 CAVOK 29/18 Q1019
12:50
V
29 °C 10 km+ - 130° 130° 3 kt METAR LIQN 191050Z 13003KT 060V190 CAVOK 29/17 Q1019
11:50
V
28 °C 10 km+ - 150° 150° 4 kt METAR LIQN 190950Z 15004KT 120V190 CAVOK 28/17 Q1019
10:50
V
27 °C 10 km+ - 150° 150° 6 kt METAR LIQN 190850Z 15006KT CAVOK 27/16 Q1019
09:58
V
27 °C 10 km+ - 150° 150° 4 kt METAR LIQN 190758Z 15004KT 120V200 CAVOK 27/16 Q1019

18 juin 2024

Temps Code Temps Temp. Vue Base cloud Vent METAR/SPECI
19:50
V
29 °C 10 km+ - 180° 180° 3 kt METAR LIQN 181750Z 18003KT 150V210 CAVOK 29/15 Q1019
18:50
V
31 °C 10 km+ - 190° 190° 4 kt METAR LIQN 181650Z 19004KT 160V220 CAVOK 31/15 Q1018
15:50
V
32 °C 10 km+ - Var Var 5 kt METAR LIQN 181350Z VRB05KT CAVOK 32/09 Q1019
14:50
V
32 °C 10 km+ - 240° 240° 6 kt METAR LIQN 181250Z 24006KT 200V270 CAVOK 32/11 Q1019
13:50
V
32 °C 10 km+ - Var Var 3 kt METAR LIQN 181150Z VRB03KT CAVOK 32/09 Q1020
12:50
V
31 °C 10 km+ - Var Var 3 kt METAR LIQN 181050Z VRB03KT CAVOK 31/10 Q1020
11:50
V
29 °C 10 km+ - Var Var 5 kt METAR LIQN 180950Z VRB05KT CAVOK 29/14 Q1020
10:50
V
27 °C 10 km+ - Var Var 3 kt METAR LIQN 180850Z VRB03KT CAVOK 27/15 Q1020
10:00
V
25 °C 10 km+ - Var Var 2 kt METAR LIQN 180800Z VRB02KT CAVOK 25/14 Q1020
Signaler les modifications